sensor_id;sensor_type;location;lat;lon;timestamp;P1;durP1;ratioP1;P2;durP2;ratioP2
42168;SDS011;27838;43.858;25.974;2024-02-14T00:00:46;3.10;;;2.80;;
42168;SDS011;27838;43.858;25.974;2024-02-14T00:03:13;2.85;;;2.58;;
42168;SDS011;27838;43.858;25.974;2024-02-14T00:05:39;3.08;;;2.78;;
42168;SDS011;27838;43.858;25.974;2024-02-14T00:08:06;3.17;;;2.88;;
42168;SDS011;27838;43.858;25.974;2024-02-14T00:10:33;2.90;;;2.60;;
42168;SDS011;27838;43.858;25.974;2024-02-14T00:12:59;2.67;;;2.47;;
42168;SDS011;27838;43.858;25.974;2024-02-14T00:15:27;4.30;;;2.38;;
42168;SDS011;27838;43.858;25.974;2024-02-14T00:17:54;3.50;;;2.45;;
42168;SDS011;27838;43.858;25.974;2024-02-14T00:20:20;2.47;;;2.28;;
42168;SDS011;27838;43.858;25.974;2024-02-14T00:22:49;2.47;;;2.28;;
42168;SDS011;27838;43.858;25.974;2024-02-14T00:25:16;2.50;;;2.30;;
42168;SDS011;27838;43.858;25.974;2024-02-14T00:27:43;3.10;;;2.50;;
42168;SDS011;27838;43.858;25.974;2024-02-14T00:30:09;3.35;;;2.42;;
42168;SDS011;27838;43.858;25.974;2024-02-14T00:32:36;3.80;;;2.70;;
42168;SDS011;27838;43.858;25.974;2024-02-14T00:35:02;2.55;;;2.35;;
42168;SDS011;27838;43.858;25.974;2024-02-14T00:37:29;2.33;;;2.13;;
42168;SDS011;27838;43.858;25.974;2024-02-14T00:39:56;3.97;;;2.50;;
42168;SDS011;27838;43.858;25.974;2024-02-14T00:42:23;2.58;;;2.30;;
42168;SDS011;27838;43.858;25.974;2024-02-14T00:44:49;3.58;;;2.47;;
42168;SDS011;27838;43.858;25.974;2024-02-14T00:47:16;2.55;;;2.05;;
42168;SDS011;27838;43.858;25.974;2024-02-14T00:49:43;2.53;;;2.22;;
42168;SDS011;27838;43.858;25.974;2024-02-14T00:52:09;1.90;;;1.80;;
42168;SDS011;27838;43.858;25.974;2024-02-14T00:54:36;2.05;;;1.35;;
42168;SDS011;27838;43.858;25.974;2024-02-14T00:57:03;3.38;;;1.90;;
42168;SDS011;27838;43.858;25.974;2024-02-14T00:59:30;1.70;;;1.60;;
42168;SDS011;27838;43.858;25.974;2024-02-14T01:01:56;2.00;;;1.77;;
42168;SDS011;27838;43.858;25.974;2024-02-14T01:04:24;2.25;;;2.05;;
42168;SDS011;27838;43.858;25.974;2024-02-14T01:06:50;1.73;;;1.50;;
42168;SDS011;27838;43.858;25.974;2024-02-14T01:09:18;1.75;;;1.45;;
42168;SDS011;27838;43.858;25.974;2024-02-14T01:11:45;2.20;;;1.75;;
42168;SDS011;27838;43.858;25.974;2024-02-14T01:14:12;1.95;;;1.75;;
42168;SDS011;27838;43.858;25.974;2024-02-14T01:16:45;1.85;;;1.48;;
42168;SDS011;27838;43.858;25.974;2024-02-14T01:19:12;1.50;;;1.40;;
42168;SDS011;27838;43.858;25.974;2024-02-14T01:21:39;2.28;;;1.52;;
42168;SDS011;27838;43.858;25.974;2024-02-14T01:24:06;1.67;;;1.58;;
42168;SDS011;27838;43.858;25.974;2024-02-14T01:26:33;2.05;;;1.52;;
42168;SDS011;27838;43.858;25.974;2024-02-14T01:29:00;1.30;;;1.20;;
42168;SDS011;27838;43.858;25.974;2024-02-14T01:31:27;1.35;;;1.25;;
42168;SDS011;27838;43.858;25.974;2024-02-14T01:33:54;1.20;;;1.10;;
42168;SDS011;27838;43.858;25.974;2024-02-14T01:36:21;1.70;;;1.20;;
42168;SDS011;27838;43.858;25.974;2024-02-14T01:38:48;2.95;;;1.20;;
42168;SDS011;27838;43.858;25.974;2024-02-14T01:41:15;1.48;;;1.33;;
42168;SDS011;27838;43.858;25.974;2024-02-14T01:43:41;1.80;;;1.35;;
42168;SDS011;27838;43.858;25.974;2024-02-14T01:46:09;1.30;;;1.20;;
42168;SDS011;27838;43.858;25.974;2024-02-14T01:48:36;1.75;;;1.27;;
42168;SDS011;27838;43.858;25.974;2024-02-14T01:51:04;1.35;;;1.17;;
42168;SDS011;27838;43.858;25.974;2024-02-14T01:53:34;1.08;;;0.98;;
42168;SDS011;27838;43.858;25.974;2024-02-14T01:56:02;1.80;;;1.20;;
42168;SDS011;27838;43.858;25.974;2024-02-14T01:58:30;0.98;;;0.95;;
42168;SDS011;27838;43.858;25.974;2024-02-14T02:00:57;1.55;;;1.20;;
42168;SDS011;27838;43.858;25.974;2024-02-14T02:03:25;0.90;;;0.90;;
42168;SDS011;27838;43.858;25.974;2024-02-14T02:05:52;1.15;;;1.02;;
42168;SDS011;27838;43.858;25.974;2024-02-14T02:08:20;1.00;;;1.00;;
42168;SDS011;27838;43.858;25.974;2024-02-14T02:10:47;1.20;;;1.10;;
42168;SDS011;27838;43.858;25.974;2024-02-14T02:13:14;1.05;;;0.98;;
42168;SDS011;27838;43.858;25.974;2024-02-14T02:15:41;0.90;;;0.90;;
42168;SDS011;27838;43.858;25.974;2024-02-14T02:18:10;0.90;;;0.90;;
42168;SDS011;27838;43.858;25.974;2024-02-14T02:20:37;1.50;;;1.08;;
42168;SDS011;27838;43.858;25.974;2024-02-14T02:23:03;1.30;;;0.80;;
42168;SDS011;27838;43.858;25.974;2024-02-14T02:25:30;1.15;;;0.90;;
42168;SDS011;27838;43.858;25.974;2024-02-14T02:27:57;1.13;;;0.85;;
42168;SDS011;27838;43.858;25.974;2024-02-14T02:30:24;0.98;;;0.82;;
42168;SDS011;27838;43.858;25.974;2024-02-14T02:32:52;0.80;;;0.80;;
42168;SDS011;27838;43.858;25.974;2024-02-14T02:35:18;1.60;;;0.90;;
42168;SDS011;27838;43.858;25.974;2024-02-14T02:37:46;1.00;;;0.80;;
42168;SDS011;27838;43.858;25.974;2024-02-14T02:40:15;1.02;;;0.90;;
42168;SDS011;27838;43.858;25.974;2024-02-14T02:42:42;1.67;;;0.90;;
42168;SDS011;27838;43.858;25.974;2024-02-14T02:45:10;1.30;;;1.13;;
42168;SDS011;27838;43.858;25.974;2024-02-14T02:47:37;0.82;;;0.80;;
42168;SDS011;27838;43.858;25.974;2024-02-14T02:50:05;0.90;;;0.90;;
42168;SDS011;27838;43.858;25.974;2024-02-14T02:52:33;0.90;;;0.90;;
42168;SDS011;27838;43.858;25.974;2024-02-14T02:55:00;0.63;;;0.63;;
42168;SDS011;27838;43.858;25.974;2024-02-14T02:57:28;1.27;;;0.90;;
42168;SDS011;27838;43.858;25.974;2024-02-14T02:59:57;0.88;;;0.80;;
42168;SDS011;27838;43.858;25.974;2024-02-14T03:02:23;0.80;;;0.70;;
42168;SDS011;27838;43.858;25.974;2024-02-14T03:04:50;0.88;;;0.80;;
42168;SDS011;27838;43.858;25.974;2024-02-14T03:07:18;0.68;;;0.68;;
42168;SDS011;27838;43.858;25.974;2024-02-14T03:09:45;0.75;;;0.60;;
42168;SDS011;27838;43.858;25.974;2024-02-14T03:12:12;0.70;;;0.70;;
42168;SDS011;27838;43.858;25.974;2024-02-14T03:14:41;1.08;;;0.93;;
42168;SDS011;27838;43.858;25.974;2024-02-14T03:17:09;0.88;;;0.88;;
42168;SDS011;27838;43.858;25.974;2024-02-14T03:19:35;5.38;;;2.70;;
42168;SDS011;27838;43.858;25.974;2024-02-14T03:22:04;4.28;;;2.75;;
42168;SDS011;27838;43.858;25.974;2024-02-14T03:24:33;1.17;;;0.90;;
42168;SDS011;27838;43.858;25.974;2024-02-14T03:27:02;0.80;;;0.80;;
42168;SDS011;27838;43.858;25.974;2024-02-14T03:29:30;0.80;;;0.80;;
42168;SDS011;27838;43.858;25.974;2024-02-14T03:31:56;2.35;;;0.70;;
42168;SDS011;27838;43.858;25.974;2024-02-14T03:34:23;9.13;;;4.75;;
42168;SDS011;27838;43.858;25.974;2024-02-14T03:36:51;3.30;;;1.40;;
42168;SDS011;27838;43.858;25.974;2024-02-14T03:39:17;8.23;;;3.45;;
42168;SDS011;27838;43.858;25.974;2024-02-14T03:41:44;1.05;;;0.95;;
42168;SDS011;27838;43.858;25.974;2024-02-14T03:44:11;0.50;;;0.50;;
42168;SDS011;27838;43.858;25.974;2024-02-14T03:46:38;0.70;;;0.70;;
42168;SDS011;27838;43.858;25.974;2024-02-14T03:49:04;0.43;;;0.40;;
42168;SDS011;27838;43.858;25.974;2024-02-14T03:51:31;0.98;;;0.70;;
42168;SDS011;27838;43.858;25.974;2024-02-14T03:53:58;0.60;;;0.60;;
42168;SDS011;27838;43.858;25.974;2024-02-14T03:56:25;0.82;;;0.82;;
42168;SDS011;27838;43.858;25.974;2024-02-14T03:58:52;1.02;;;0.70;;
42168;SDS011;27838;43.858;25.974;2024-02-14T04:01:18;6.97;;;4.28;;
42168;SDS011;27838;43.858;25.974;2024-02-14T04:03:46;0.93;;;0.85;;
42168;SDS011;27838;43.858;25.974;2024-02-14T04:06:13;0.63;;;0.63;;
42168;SDS011;27838;43.858;25.974;2024-02-14T04:08:40;0.80;;;0.70;;
42168;SDS011;27838;43.858;25.974;2024-02-14T04:11:07;0.63;;;0.63;;
42168;SDS011;27838;43.858;25.974;2024-02-14T04:13:33;1.35;;;0.90;;
42168;SDS011;27838;43.858;25.974;2024-02-14T04:16:00;1.95;;;1.00;;
42168;SDS011;27838;43.858;25.974;2024-02-14T04:18:26;0.88;;;0.88;;
42168;SDS011;27838;43.858;25.974;2024-02-14T04:20:53;3.42;;;1.20;;
42168;SDS011;27838;43.858;25.974;2024-02-14T04:23:20;1.20;;;1.02;;
42168;SDS011;27838;43.858;25.974;2024-02-14T04:25:47;0.50;;;0.50;;
42168;SDS011;27838;43.858;25.974;2024-02-14T04:28:14;0.80;;;0.80;;
42168;SDS011;27838;43.858;25.974;2024-02-14T04:30:40;1.83;;;0.90;;
42168;SDS011;27838;43.858;25.974;2024-02-14T04:33:08;1.05;;;0.88;;
42168;SDS011;27838;43.858;25.974;2024-02-14T04:35:34;0.75;;;0.70;;
42168;SDS011;27838;43.858;25.974;2024-02-14T04:38:01;1.55;;;1.25;;
42168;SDS011;27838;43.858;25.974;2024-02-14T04:40:28;5.22;;;1.00;;
42168;SDS011;27838;43.858;25.974;2024-02-14T04:42:54;0.80;;;0.80;;
42168;SDS011;27838;43.858;25.974;2024-02-14T04:45:21;1.02;;;0.90;;
42168;SDS011;27838;43.858;25.974;2024-02-14T04:47:47;0.93;;;0.90;;
42168;SDS011;27838;43.858;25.974;2024-02-14T04:50:14;1.15;;;1.10;;
42168;SDS011;27838;43.858;25.974;2024-02-14T04:52:40;2.22;;;1.13;;
42168;SDS011;27838;43.858;25.974;2024-02-14T04:55:07;2.67;;;1.05;;
42168;SDS011;27838;43.858;25.974;2024-02-14T04:57:34;1.60;;;0.90;;
42168;SDS011;27838;43.858;25.974;2024-02-14T05:00:02;3.88;;;1.52;;
42168;SDS011;27838;43.858;25.974;2024-02-14T05:02:30;1.65;;;1.35;;
42168;SDS011;27838;43.858;25.974;2024-02-14T05:04:57;2.80;;;1.40;;
42168;SDS011;27838;43.858;25.974;2024-02-14T05:07:23;1.83;;;0.90;;
42168;SDS011;27838;43.858;25.974;2024-02-14T05:09:50;4.65;;;1.20;;
42168;SDS011;27838;43.858;25.974;2024-02-14T05:12:17;14.65;;;3.75;;
42168;SDS011;27838;43.858;25.974;2024-02-14T05:14:44;4.32;;;1.75;;
42168;SDS011;27838;43.858;25.974;2024-02-14T05:17:11;4.57;;;1.63;;
42168;SDS011;27838;43.858;25.974;2024-02-14T05:19:37;10.50;;;1.70;;
42168;SDS011;27838;43.858;25.974;2024-02-14T05:22:04;7.38;;;1.38;;
42168;SDS011;27838;43.858;25.974;2024-02-14T05:24:31;2.15;;;1.60;;
42168;SDS011;27838;43.858;25.974;2024-02-14T05:26:57;10.05;;;1.70;;
42168;SDS011;27838;43.858;25.974;2024-02-14T05:29:24;12.25;;;2.38;;
42168;SDS011;27838;43.858;25.974;2024-02-14T05:31:50;6.15;;;2.10;;
42168;SDS011;27838;43.858;25.974;2024-02-14T05:34:20;6.25;;;2.63;;
42168;SDS011;27838;43.858;25.974;2024-02-14T05:36:47;5.55;;;2.08;;
42168;SDS011;27838;43.858;25.974;2024-02-14T05:39:13;3.70;;;1.98;;
42168;SDS011;27838;43.858;25.974;2024-02-14T05:41:41;3.05;;;2.10;;
42168;SDS011;27838;43.858;25.974;2024-02-14T05:44:08;5.05;;;2.20;;
42168;SDS011;27838;43.858;25.974;2024-02-14T05:46:34;4.30;;;2.10;;
42168;SDS011;27838;43.858;25.974;2024-02-14T05:49:01;6.88;;;2.30;;
42168;SDS011;27838;43.858;25.974;2024-02-14T05:51:28;6.50;;;2.22;;
42168;SDS011;27838;43.858;25.974;2024-02-14T05:53:55;4.28;;;2.40;;
42168;SDS011;27838;43.858;25.974;2024-02-14T05:56:21;2.72;;;2.05;;
42168;SDS011;27838;43.858;25.974;2024-02-14T05:58:48;4.07;;;2.47;;
42168;SDS011;27838;43.858;25.974;2024-02-14T06:01:14;4.90;;;2.72;;
42168;SDS011;27838;43.858;25.974;2024-02-14T06:03:41;5.32;;;2.88;;
42168;SDS011;27838;43.858;25.974;2024-02-14T06:06:08;14.02;;;4.13;;
42168;SDS011;27838;43.858;25.974;2024-02-14T06:08:35;7.63;;;3.83;;
42168;SDS011;27838;43.858;25.974;2024-02-14T06:11:02;10.20;;;4.32;;
42168;SDS011;27838;43.858;25.974;2024-02-14T06:13:28;25.10;;;13.85;;
42168;SDS011;27838;43.858;25.974;2024-02-14T06:15:55;35.10;;;21.25;;
42168;SDS011;27838;43.858;25.974;2024-02-14T06:18:21;23.15;;;8.57;;
42168;SDS011;27838;43.858;25.974;2024-02-14T06:20:48;11.32;;;6.55;;
42168;SDS011;27838;43.858;25.974;2024-02-14T06:23:15;12.68;;;5.30;;
42168;SDS011;27838;43.858;25.974;2024-02-14T06:25:41;15.35;;;7.45;;
42168;SDS011;27838;43.858;25.974;2024-02-14T06:28:08;9.90;;;5.65;;
42168;SDS011;27838;43.858;25.974;2024-02-14T06:30:35;14.48;;;5.43;;
42168;SDS011;27838;43.858;25.974;2024-02-14T06:33:02;13.55;;;7.15;;
42168;SDS011;27838;43.858;25.974;2024-02-14T06:35:29;11.50;;;4.88;;
42168;SDS011;27838;43.858;25.974;2024-02-14T06:37:56;9.52;;;4.47;;
42168;SDS011;27838;43.858;25.974;2024-02-14T06:40:22;9.23;;;3.95;;
42168;SDS011;27838;43.858;25.974;2024-02-14T06:42:49;8.57;;;3.78;;
42168;SDS011;27838;43.858;25.974;2024-02-14T06:45:17;12.30;;;3.75;;
42168;SDS011;27838;43.858;25.974;2024-02-14T06:47:43;8.57;;;3.75;;
42168;SDS011;27838;43.858;25.974;2024-02-14T06:50:10;6.03;;;2.92;;
42168;SDS011;27838;43.858;25.974;2024-02-14T06:52:36;6.55;;;3.22;;
42168;SDS011;27838;43.858;25.974;2024-02-14T06:55:03;6.18;;;3.80;;
42168;SDS011;27838;43.858;25.974;2024-02-14T06:57:30;10.35;;;4.50;;
42168;SDS011;27838;43.858;25.974;2024-02-14T06:59:56;7.40;;;3.30;;
42168;SDS011;27838;43.858;25.974;2024-02-14T07:02:23;5.60;;;3.38;;
42168;SDS011;27838;43.858;25.974;2024-02-14T07:04:53;10.13;;;3.85;;
42168;SDS011;27838;43.858;25.974;2024-02-14T07:07:20;7.25;;;3.78;;
42168;SDS011;27838;43.858;25.974;2024-02-14T07:09:46;6.03;;;3.50;;
42168;SDS011;27838;43.858;25.974;2024-02-14T07:12:13;6.13;;;4.07;;
42168;SDS011;27838;43.858;25.974;2024-02-14T07:14:40;10.65;;;4.30;;
42168;SDS011;27838;43.858;25.974;2024-02-14T07:17:06;7.63;;;3.47;;
42168;SDS011;27838;43.858;25.974;2024-02-14T07:19:33;10.52;;;4.13;;
42168;SDS011;27838;43.858;25.974;2024-02-14T07:22:00;14.13;;;4.18;;
42168;SDS011;27838;43.858;25.974;2024-02-14T07:24:26;11.10;;;4.38;;
42168;SDS011;27838;43.858;25.974;2024-02-14T07:26:53;9.80;;;4.78;;
42168;SDS011;27838;43.858;25.974;2024-02-14T07:29:19;9.50;;;3.50;;
42168;SDS011;27838;43.858;25.974;2024-02-14T07:31:46;5.05;;;3.50;;
42168;SDS011;27838;43.858;25.974;2024-02-14T07:34:13;21.20;;;12.00;;
42168;SDS011;27838;43.858;25.974;2024-02-14T07:36:39;11.80;;;4.80;;
42168;SDS011;27838;43.858;25.974;2024-02-14T07:39:11;14.65;;;5.95;;
42168;SDS011;27838;43.858;25.974;2024-02-14T07:41:37;6.13;;;4.13;;
42168;SDS011;27838;43.858;25.974;2024-02-14T07:44:04;11.82;;;5.80;;
42168;SDS011;27838;43.858;25.974;2024-02-14T07:46:31;10.93;;;5.30;;
42168;SDS011;27838;43.858;25.974;2024-02-14T07:48:58;6.50;;;3.72;;
42168;SDS011;27838;43.858;25.974;2024-02-14T07:51:24;12.10;;;4.93;;
42168;SDS011;27838;43.858;25.974;2024-02-14T07:53:53;6.45;;;4.32;;
42168;SDS011;27838;43.858;25.974;2024-02-14T07:56:20;6.45;;;3.83;;
42168;SDS011;27838;43.858;25.974;2024-02-14T07:58:47;4.22;;;2.88;;
42168;SDS011;27838;43.858;25.974;2024-02-14T08:01:14;4.50;;;3.55;;
42168;SDS011;27838;43.858;25.974;2024-02-14T08:03:41;2.97;;;2.20;;
42168;SDS011;27838;43.858;25.974;2024-02-14T08:06:08;3.75;;;2.47;;
42168;SDS011;27838;43.858;25.974;2024-02-14T08:08:34;2.72;;;2.33;;
42168;SDS011;27838;43.858;25.974;2024-02-14T08:11:01;5.72;;;3.33;;
42168;SDS011;27838;43.858;25.974;2024-02-14T08:13:27;5.43;;;3.63;;
42168;SDS011;27838;43.858;25.974;2024-02-14T08:15:54;3.88;;;3.05;;
42168;SDS011;27838;43.858;25.974;2024-02-14T08:18:21;9.00;;;3.10;;
42168;SDS011;27838;43.858;25.974;2024-02-14T08:20:48;4.28;;;3.08;;
42168;SDS011;27838;43.858;25.974;2024-02-14T08:23:14;6.63;;;3.53;;
42168;SDS011;27838;43.858;25.974;2024-02-14T08:25:42;31.60;;;21.13;;
42168;SDS011;27838;43.858;25.974;2024-02-14T08:28:09;12.25;;;7.50;;
42168;SDS011;27838;43.858;25.974;2024-02-14T08:30:36;5.13;;;3.65;;
42168;SDS011;27838;43.858;25.974;2024-02-14T08:33:03;4.13;;;3.50;;
42168;SDS011;27838;43.858;25.974;2024-02-14T08:35:29;4.53;;;2.97;;
42168;SDS011;27838;43.858;25.974;2024-02-14T08:37:56;5.32;;;2.90;;
42168;SDS011;27838;43.858;25.974;2024-02-14T08:40:22;14.25;;;9.18;;
42168;SDS011;27838;43.858;25.974;2024-02-14T08:42:49;14.35;;;10.13;;
42168;SDS011;27838;43.858;25.974;2024-02-14T08:45:16;3.35;;;2.60;;
42168;SDS011;27838;43.858;25.974;2024-02-14T08:47:45;4.80;;;2.78;;
42168;SDS011;27838;43.858;25.974;2024-02-14T08:50:12;3.97;;;2.78;;
42168;SDS011;27838;43.858;25.974;2024-02-14T08:52:39;3.85;;;2.75;;
42168;SDS011;27838;43.858;25.974;2024-02-14T08:55:06;3.05;;;2.28;;
42168;SDS011;27838;43.858;25.974;2024-02-14T08:57:39;6.35;;;3.50;;
42168;SDS011;27838;43.858;25.974;2024-02-14T09:00:06;9.30;;;3.05;;
42168;SDS011;27838;43.858;25.974;2024-02-14T09:02:35;3.22;;;2.25;;
42168;SDS011;27838;43.858;25.974;2024-02-14T09:05:02;3.88;;;1.80;;
42168;SDS011;27838;43.858;25.974;2024-02-14T09:07:31;1.98;;;1.60;;
42168;SDS011;27838;43.858;25.974;2024-02-14T09:09:59;2.90;;;1.95;;
42168;SDS011;27838;43.858;25.974;2024-02-14T09:12:25;4.50;;;1.75;;
42168;SDS011;27838;43.858;25.974;2024-02-14T09:14:52;3.72;;;2.58;;
42168;SDS011;27838;43.858;25.974;2024-02-14T09:17:18;3.25;;;2.40;;
42168;SDS011;27838;43.858;25.974;2024-02-14T09:19:45;3.35;;;1.92;;
42168;SDS011;27838;43.858;25.974;2024-02-14T09:22:12;7.15;;;2.08;;
42168;SDS011;27838;43.858;25.974;2024-02-14T09:24:43;4.47;;;1.77;;
42168;SDS011;27838;43.858;25.974;2024-02-14T09:27:10;4.50;;;2.15;;
42168;SDS011;27838;43.858;25.974;2024-02-14T09:29:36;7.93;;;2.60;;
42168;SDS011;27838;43.858;25.974;2024-02-14T09:32:03;20.98;;;2.55;;
42168;SDS011;27838;43.858;25.974;2024-02-14T09:34:30;5.05;;;2.30;;
42168;SDS011;27838;43.858;25.974;2024-02-14T09:36:57;8.55;;;2.55;;
42168;SDS011;27838;43.858;25.974;2024-02-14T09:39:24;4.40;;;2.47;;
42168;SDS011;27838;43.858;25.974;2024-02-14T09:41:51;16.88;;;3.78;;
42168;SDS011;27838;43.858;25.974;2024-02-14T09:44:20;14.20;;;3.70;;
42168;SDS011;27838;43.858;25.974;2024-02-14T09:46:48;16.17;;;2.90;;
42168;SDS011;27838;43.858;25.974;2024-02-14T09:49:16;8.15;;;3.75;;
42168;SDS011;27838;43.858;25.974;2024-02-14T09:51:44;6.20;;;3.22;;
42168;SDS011;27838;43.858;25.974;2024-02-14T09:54:12;19.38;;;4.30;;
42168;SDS011;27838;43.858;25.974;2024-02-14T09:56:39;11.15;;;2.72;;
42168;SDS011;27838;43.858;25.974;2024-02-14T09:59:06;6.78;;;2.50;;
42168;SDS011;27838;43.858;25.974;2024-02-14T10:01:33;5.72;;;3.00;;
42168;SDS011;27838;43.858;25.974;2024-02-14T10:03:59;12.15;;;3.53;;
42168;SDS011;27838;43.858;25.974;2024-02-14T10:06:26;4.40;;;2.90;;
42168;SDS011;27838;43.858;25.974;2024-02-14T10:08:52;7.13;;;2.80;;
42168;SDS011;27838;43.858;25.974;2024-02-14T10:11:19;10.80;;;3.25;;
42168;SDS011;27838;43.858;25.974;2024-02-14T10:13:48;3.25;;;2.50;;
42168;SDS011;27838;43.858;25.974;2024-02-14T10:16:15;5.68;;;3.00;;
42168;SDS011;27838;43.858;25.974;2024-02-14T10:18:43;13.40;;;5.75;;
42168;SDS011;27838;43.858;25.974;2024-02-14T10:21:14;9.68;;;3.10;;
42168;SDS011;27838;43.858;25.974;2024-02-14T10:23:44;7.05;;;2.53;;
42168;SDS011;27838;43.858;25.974;2024-02-14T10:26:11;5.47;;;3.08;;
42168;SDS011;27838;43.858;25.974;2024-02-14T10:28:43;8.27;;;2.80;;
42168;SDS011;27838;43.858;25.974;2024-02-14T10:31:10;17.00;;;8.52;;
42168;SDS011;27838;43.858;25.974;2024-02-14T10:33:38;4.95;;;2.50;;
42168;SDS011;27838;43.858;25.974;2024-02-14T10:36:08;9.70;;;5.00;;
42168;SDS011;27838;43.858;25.974;2024-02-14T10:38:34;5.82;;;3.42;;
42168;SDS011;27838;43.858;25.974;2024-02-14T10:41:01;8.55;;;3.70;;
42168;SDS011;27838;43.858;25.974;2024-02-14T10:43:28;4.35;;;2.60;;
42168;SDS011;27838;43.858;25.974;2024-02-14T10:45:56;11.02;;;5.25;;
42168;SDS011;27838;43.858;25.974;2024-02-14T10:48:25;8.05;;;4.15;;
42168;SDS011;27838;43.858;25.974;2024-02-14T10:50:56;7.88;;;2.78;;
42168;SDS011;27838;43.858;25.974;2024-02-14T10:53:25;5.30;;;2.40;;
42168;SDS011;27838;43.858;25.974;2024-02-14T10:55:55;7.43;;;3.28;;
42168;SDS011;27838;43.858;25.974;2024-02-14T10:58:24;4.45;;;2.60;;
42168;SDS011;27838;43.858;25.974;2024-02-14T11:00:54;7.45;;;2.80;;
42168;SDS011;27838;43.858;25.974;2024-02-14T11:03:22;3.78;;;2.08;;
42168;SDS011;27838;43.858;25.974;2024-02-14T11:05:49;5.57;;;2.28;;
42168;SDS011;27838;43.858;25.974;2024-02-14T11:08:18;4.45;;;2.63;;
42168;SDS011;27838;43.858;25.974;2024-02-14T11:10:53;4.18;;;2.10;;
42168;SDS011;27838;43.858;25.974;2024-02-14T11:13:21;4.38;;;3.50;;
42168;SDS011;27838;43.858;25.974;2024-02-14T11:15:47;12.70;;;4.38;;
42168;SDS011;27838;43.858;25.974;2024-02-14T11:18:26;3.35;;;2.22;;
42168;SDS011;27838;43.858;25.974;2024-02-14T11:20:54;9.02;;;3.00;;
42168;SDS011;27838;43.858;25.974;2024-02-14T11:23:22;8.38;;;4.88;;
42168;SDS011;27838;43.858;25.974;2024-02-14T11:25:48;5.63;;;2.58;;
42168;SDS011;27838;43.858;25.974;2024-02-14T11:28:19;3.28;;;2.70;;
42168;SDS011;27838;43.858;25.974;2024-02-14T11:30:50;6.60;;;3.53;;
42168;SDS011;27838;43.858;25.974;2024-02-14T11:33:23;5.10;;;2.67;;
42168;SDS011;27838;43.858;25.974;2024-02-14T11:35:50;8.50;;;3.47;;
42168;SDS011;27838;43.858;25.974;2024-02-14T11:38:21;6.68;;;3.20;;
42168;SDS011;27838;43.858;25.974;2024-02-14T11:40:51;5.38;;;2.83;;
42168;SDS011;27838;43.858;25.974;2024-02-14T11:43:21;11.27;;;2.87;;
42168;SDS011;27838;43.858;25.974;2024-02-14T11:45:49;3.35;;;2.65;;
42168;SDS011;27838;43.858;25.974;2024-02-14T11:48:15;6.80;;;2.83;;
42168;SDS011;27838;43.858;25.974;2024-02-14T11:50:44;4.35;;;2.58;;
42168;SDS011;27838;43.858;25.974;2024-02-14T11:53:11;7.53;;;2.55;;
42168;SDS011;27838;43.858;25.974;2024-02-14T11:55:43;6.40;;;3.00;;
42168;SDS011;27838;43.858;25.974;2024-02-14T11:58:12;7.45;;;2.90;;
42168;SDS011;27838;43.858;25.974;2024-02-14T12:00:45;7.18;;;3.25;;
42168;SDS011;27838;43.858;25.974;2024-02-14T12:03:17;4.25;;;2.72;;
42168;SDS011;27838;43.858;25.974;2024-02-14T12:05:46;3.50;;;2.80;;
42168;SDS011;27838;43.858;25.974;2024-02-14T12:08:13;8.77;;;6.32;;
42168;SDS011;27838;43.858;25.974;2024-02-14T12:10:44;9.35;;;4.82;;
42168;SDS011;27838;43.858;25.974;2024-02-14T12:13:12;5.80;;;3.20;;
42168;SDS011;27838;43.858;25.974;2024-02-14T12:15:40;8.02;;;4.22;;
42168;SDS011;27838;43.858;25.974;2024-02-14T12:18:08;8.27;;;5.15;;
42168;SDS011;27838;43.858;25.974;2024-02-14T12:20:35;9.50;;;6.03;;
42168;SDS011;27838;43.858;25.974;2024-02-14T12:23:02;8.65;;;5.75;;
42168;SDS011;27838;43.858;25.974;2024-02-14T12:25:32;9.82;;;6.45;;
42168;SDS011;27838;43.858;25.974;2024-02-14T12:27:59;12.85;;;6.15;;
42168;SDS011;27838;43.858;25.974;2024-02-14T12:33:28;15.40;;;9.13;;
42168;SDS011;27838;43.858;25.974;2024-02-14T12:35:57;10.40;;;7.13;;
42168;SDS011;27838;43.858;25.974;2024-02-14T12:38:24;9.30;;;7.13;;
42168;SDS011;27838;43.858;25.974;2024-02-14T12:40:50;12.68;;;6.90;;
42168;SDS011;27838;43.858;25.974;2024-02-14T12:43:18;8.25;;;6.80;;
42168;SDS011;27838;43.858;25.974;2024-02-14T12:45:45;11.02;;;6.80;;
42168;SDS011;27838;43.858;25.974;2024-02-14T12:48:12;8.68;;;7.20;;
42168;SDS011;27838;43.858;25.974;2024-02-14T12:50:40;13.70;;;6.80;;
42168;SDS011;27838;43.858;25.974;2024-02-14T12:53:12;11.73;;;5.90;;
42168;SDS011;27838;43.858;25.974;2024-02-14T12:55:39;7.78;;;5.60;;
42168;SDS011;27838;43.858;25.974;2024-02-14T12:58:05;6.70;;;4.40;;
42168;SDS011;27838;43.858;25.974;2024-02-14T13:00:32;8.13;;;4.13;;
42168;SDS011;27838;43.858;25.974;2024-02-14T13:02:59;6.20;;;4.65;;
42168;SDS011;27838;43.858;25.974;2024-02-14T13:05:26;14.30;;;5.30;;
42168;SDS011;27838;43.858;25.974;2024-02-14T13:07:53;14.00;;;4.82;;
42168;SDS011;27838;43.858;25.974;2024-02-14T13:10:20;8.45;;;4.18;;
42168;SDS011;27838;43.858;25.974;2024-02-14T13:12:47;14.40;;;4.68;;
42168;SDS011;27838;43.858;25.974;2024-02-14T13:15:14;7.47;;;4.30;;
42168;SDS011;27838;43.858;25.974;2024-02-14T13:17:41;8.98;;;4.47;;
42168;SDS011;27838;43.858;25.974;2024-02-14T13:20:08;9.05;;;4.75;;
42168;SDS011;27838;43.858;25.974;2024-02-14T13:22:35;6.40;;;4.50;;
42168;SDS011;27838;43.858;25.974;2024-02-14T13:25:02;6.28;;;4.53;;
42168;SDS011;27838;43.858;25.974;2024-02-14T13:27:30;13.35;;;5.30;;
42168;SDS011;27838;43.858;25.974;2024-02-14T13:29:56;9.52;;;5.60;;
42168;SDS011;27838;43.858;25.974;2024-02-14T13:32:23;13.15;;;7.07;;
42168;SDS011;27838;43.858;25.974;2024-02-14T13:34:49;12.57;;;7.03;;
42168;SDS011;27838;43.858;25.974;2024-02-14T13:37:16;15.90;;;10.95;;
42168;SDS011;27838;43.858;25.974;2024-02-14T13:39:43;9.43;;;7.15;;
42168;SDS011;27838;43.858;25.974;2024-02-14T13:42:09;12.63;;;8.05;;
42168;SDS011;27838;43.858;25.974;2024-02-14T13:44:36;15.07;;;7.22;;
42168;SDS011;27838;43.858;25.974;2024-02-14T13:47:03;10.18;;;6.93;;
42168;SDS011;27838;43.858;25.974;2024-02-14T13:49:30;11.68;;;7.22;;
42168;SDS011;27838;43.858;25.974;2024-02-14T13:51:56;11.40;;;7.50;;
42168;SDS011;27838;43.858;25.974;2024-02-14T13:54:23;11.88;;;7.97;;
42168;SDS011;27838;43.858;25.974;2024-02-14T13:56:50;10.18;;;7.60;;
42168;SDS011;27838;43.858;25.974;2024-02-14T13:59:17;14.52;;;7.57;;
42168;SDS011;27838;43.858;25.974;2024-02-14T14:01:45;12.50;;;7.97;;
42168;SDS011;27838;43.858;25.974;2024-02-14T14:04:12;15.57;;;8.30;;
42168;SDS011;27838;43.858;25.974;2024-02-14T14:06:39;14.05;;;7.45;;
42168;SDS011;27838;43.858;25.974;2024-02-14T14:09:05;14.88;;;9.25;;
42168;SDS011;27838;43.858;25.974;2024-02-14T14:11:34;16.08;;;8.20;;
42168;SDS011;27838;43.858;25.974;2024-02-14T14:14:00;12.85;;;8.20;;
42168;SDS011;27838;43.858;25.974;2024-02-14T14:16:27;18.08;;;8.30;;
42168;SDS011;27838;43.858;25.974;2024-02-14T14:18:53;16.35;;;8.35;;
42168;SDS011;27838;43.858;25.974;2024-02-14T14:21:20;16.25;;;8.98;;
42168;SDS011;27838;43.858;25.974;2024-02-14T14:23:46;14.05;;;8.20;;
42168;SDS011;27838;43.858;25.974;2024-02-14T14:26:13;12.68;;;8.30;;
42168;SDS011;27838;43.858;25.974;2024-02-14T14:28:40;15.13;;;7.65;;
42168;SDS011;27838;43.858;25.974;2024-02-14T14:31:07;18.60;;;10.90;;
42168;SDS011;27838;43.858;25.974;2024-02-14T14:33:36;18.17;;;9.60;;